sensor_id;sensor_type;location;lat;lon;timestamp;pressure;altitude;pressure_sealevel;temperature
69704;BMP280;56967;43.538;-5.646;2023-04-19T00:00:03;99611.22;;;14.88
69704;BMP280;56967;43.538;-5.646;2023-04-19T00:02:28;99584.56;;;14.80
69704;BMP280;56967;43.538;-5.646;2023-04-19T00:04:54;99556.78;;;14.82
69704;BMP280;56967;43.538;-5.646;2023-04-19T00:07:19;99525.09;;;14.67
69704;BMP280;56967;43.538;-5.646;2023-04-19T00:09:45;99455.81;;;14.60
69704;BMP280;56967;43.538;-5.646;2023-04-19T00:12:10;99429.13;;;14.61
69704;BMP280;56967;43.538;-5.646;2023-04-19T00:14:36;99399.50;;;14.59
69704;BMP280;56967;43.538;-5.646;2023-04-19T00:17:01;99376.50;;;14.55
69704;BMP280;56967;43.538;-5.646;2023-04-19T00:19:27;99353.47;;;14.65
69704;BMP280;56967;43.538;-5.646;2023-04-19T00:21:53;99376.22;;;14.61
69704;BMP280;56967;43.538;-5.646;2023-04-19T00:24:18;99370.38;;;14.64
69704;BMP280;56967;43.538;-5.646;2023-04-19T00:26:44;99330.75;;;14.59
69704;BMP280;56967;43.538;-5.646;2023-04-19T00:29:09;99346.50;;;14.75
69704;BMP280;56967;43.538;-5.646;2023-04-19T00:31:35;99320.97;;;14.60
69704;BMP280;56967;43.538;-5.646;2023-04-19T00:34:00;99310.06;;;14.72
69704;BMP280;56967;43.538;-5.646;2023-04-19T00:36:27;99336.78;;;14.70
69704;BMP280;56967;43.538;-5.646;2023-04-19T00:38:52;99305.91;;;14.60
69704;BMP280;56967;43.538;-5.646;2023-04-19T00:41:18;99295.06;;;14.62
69704;BMP280;56967;43.538;-5.646;2023-04-19T00:43:43;99282.13;;;14.55
69704;BMP280;56967;43.538;-5.646;2023-04-19T00:46:09;99234.59;;;14.50
69704;BMP280;56967;43.538;-5.646;2023-04-19T00:48:35;99242.19;;;14.62
69704;BMP280;56967;43.538;-5.646;2023-04-19T00:51:01;99242.50;;;14.50
69704;BMP280;56967;43.538;-5.646;2023-04-19T00:53:26;99203.72;;;14.41
69704;BMP280;56967;43.538;-5.646;2023-04-19T00:55:53;99180.97;;;14.45
69704;BMP280;56967;43.538;-5.646;2023-04-19T00:58:21;99162.22;;;14.41
69704;BMP280;56967;43.538;-5.646;2023-04-19T01:00:46;99129.19;;;14.39
69704;BMP280;56967;43.538;-5.646;2023-04-19T01:03:12;99121.06;;;14.35
69704;BMP280;56967;43.538;-5.646;2023-04-19T01:05:38;99101.78;;;14.30
69704;BMP280;56967;43.538;-5.646;2023-04-19T01:08:03;99065.19;;;14.18
69704;BMP280;56967;43.538;-5.646;2023-04-19T01:10:29;99059.09;;;14.18
69704;BMP280;56967;43.538;-5.646;2023-04-19T01:12:54;99035.88;;;14.15
69704;BMP280;56967;43.538;-5.646;2023-04-19T01:15:20;99005.78;;;14.11
69704;BMP280;56967;43.538;-5.646;2023-04-19T01:17:46;98970.75;;;14.00
69704;BMP280;56967;43.538;-5.646;2023-04-19T01:20:12;98930.38;;;13.99
69704;BMP280;56967;43.538;-5.646;2023-04-19T01:22:37;98889.81;;;13.90
69704;BMP280;56967;43.538;-5.646;2023-04-19T01:25:05;98885.78;;;13.93
69704;BMP280;56967;43.538;-5.646;2023-04-19T01:27:31;98856.00;;;13.87
69704;BMP280;56967;43.538;-5.646;2023-04-19T01:29:57;98813.00;;;13.82
69704;BMP280;56967;43.538;-5.646;2023-04-19T01:32:23;98821.16;;;13.85
69704;BMP280;56967;43.538;-5.646;2023-04-19T01:34:51;98833.88;;;13.83
69704;BMP280;56967;43.538;-5.646;2023-04-19T01:37:16;98823.56;;;13.82
69704;BMP280;56967;43.538;-5.646;2023-04-19T01:39:42;98812.47;;;13.85
69704;BMP280;56967;43.538;-5.646;2023-04-19T01:42:07;98799.31;;;13.80
69704;BMP280;56967;43.538;-5.646;2023-04-19T01:44:33;98778.47;;;13.78
69704;BMP280;56967;43.538;-5.646;2023-04-19T01:46:58;98772.44;;;13.73
69704;BMP280;56967;43.538;-5.646;2023-04-19T01:49:24;98776.19;;;13.72
69704;BMP280;56967;43.538;-5.646;2023-04-19T01:51:50;98777.25;;;13.71
69704;BMP280;56967;43.538;-5.646;2023-04-19T01:54:15;98749.53;;;13.68
69704;BMP280;56967;43.538;-5.646;2023-04-19T01:56:41;98770.66;;;13.68
69704;BMP280;56967;43.538;-5.646;2023-04-19T01:59:06;98753.75;;;13.69
69704;BMP280;56967;43.538;-5.646;2023-04-19T02:01:32;98728.78;;;13.62
69704;BMP280;56967;43.538;-5.646;2023-04-19T02:03:57;98699.22;;;13.60
69704;BMP280;56967;43.538;-5.646;2023-04-19T02:06:23;98677.56;;;13.63
69704;BMP280;56967;43.538;-5.646;2023-04-19T02:08:48;98698.41;;;13.64
69704;BMP280;56967;43.538;-5.646;2023-04-19T02:11:14;98690.53;;;13.59
69704;BMP280;56967;43.538;-5.646;2023-04-19T02:13:40;98654.41;;;13.55
69704;BMP280;56967;43.538;-5.646;2023-04-19T02:16:06;98609.19;;;13.42
69704;BMP280;56967;43.538;-5.646;2023-04-19T02:18:32;98576.13;;;13.50
69704;BMP280;56967;43.538;-5.646;2023-04-19T02:21:03;98578.56;;;13.47
69704;BMP280;56967;43.538;-5.646;2023-04-19T02:23:28;98545.22;;;13.32
69704;BMP280;56967;43.538;-5.646;2023-04-19T02:25:54;98473.44;;;13.35
69704;BMP280;56967;43.538;-5.646;2023-04-19T02:28:19;98478.41;;;13.36
69704;BMP280;56967;43.538;-5.646;2023-04-19T02:30:45;98475.03;;;13.36
69704;BMP280;56967;43.538;-5.646;2023-04-19T02:33:11;98468.97;;;13.35
69704;BMP280;56967;43.538;-5.646;2023-04-19T02:35:37;98471.38;;;13.32
69704;BMP280;56967;43.538;-5.646;2023-04-19T02:38:03;98437.38;;;13.30
69704;BMP280;56967;43.538;-5.646;2023-04-19T02:40:29;98394.91;;;13.13
69704;BMP280;56967;43.538;-5.646;2023-04-19T02:42:54;98345.38;;;13.10
69704;BMP280;56967;43.538;-5.646;2023-04-19T02:45:20;98312.94;;;13.10
69704;BMP280;56967;43.538;-5.646;2023-04-19T02:47:46;98286.66;;;13.05
69704;BMP280;56967;43.538;-5.646;2023-04-19T02:50:12;98252.31;;;13.10
69704;BMP280;56967;43.538;-5.646;2023-04-19T02:52:38;98254.53;;;13.03
69704;BMP280;56967;43.538;-5.646;2023-04-19T02:55:04;98235.78;;;13.04
69704;BMP280;56967;43.538;-5.646;2023-04-19T02:57:31;98242.53;;;13.10
69704;BMP280;56967;43.538;-5.646;2023-04-19T02:59:56;98281.91;;;13.07
69704;BMP280;56967;43.538;-5.646;2023-04-19T03:02:23;98254.16;;;13.09
69704;BMP280;56967;43.538;-5.646;2023-04-19T03:04:49;98284.28;;;13.08
69704;BMP280;56967;43.538;-5.646;2023-04-19T03:07:14;98286.16;;;13.03
69704;BMP280;56967;43.538;-5.646;2023-04-19T03:09:40;98299.50;;;13.11
69704;BMP280;56967;43.538;-5.646;2023-04-19T03:12:06;98303.97;;;13.11
69704;BMP280;56967;43.538;-5.646;2023-04-19T03:14:32;98309.25;;;13.11
69704;BMP280;56967;43.538;-5.646;2023-04-19T03:17:01;98344.50;;;13.15
69704;BMP280;56967;43.538;-5.646;2023-04-19T03:19:27;98344.03;;;13.13
69704;BMP280;56967;43.538;-5.646;2023-04-19T03:21:53;98379.88;;;13.14
69704;BMP280;56967;43.538;-5.646;2023-04-19T03:24:18;98381.41;;;13.15
69704;BMP280;56967;43.538;-5.646;2023-04-19T03:26:47;98390.97;;;13.11
69704;BMP280;56967;43.538;-5.646;2023-04-19T03:29:12;98375.16;;;13.11
69704;BMP280;56967;43.538;-5.646;2023-04-19T03:31:38;98369.28;;;12.95
69704;BMP280;56967;43.538;-5.646;2023-04-19T03:34:04;98317.19;;;12.92
69704;BMP280;56967;43.538;-5.646;2023-04-19T03:36:29;98239.53;;;12.84
69704;BMP280;56967;43.538;-5.646;2023-04-19T03:38:55;98170.06;;;12.80
69704;BMP280;56967;43.538;-5.646;2023-04-19T03:41:25;98129.13;;;12.83
69704;BMP280;56967;43.538;-5.646;2023-04-19T03:43:51;98135.00;;;12.80
69704;BMP280;56967;43.538;-5.646;2023-04-19T03:46:16;98138.63;;;12.84
69704;BMP280;56967;43.538;-5.646;2023-04-19T03:48:42;98166.41;;;12.76
69704;BMP280;56967;43.538;-5.646;2023-04-19T03:51:08;98141.81;;;12.67
69704;BMP280;56967;43.538;-5.646;2023-04-19T03:53:34;98105.56;;;12.59
69704;BMP280;56967;43.538;-5.646;2023-04-19T03:55:59;98105.69;;;12.68
69704;BMP280;56967;43.538;-5.646;2023-04-19T03:58:25;98112.16;;;12.75
69704;BMP280;56967;43.538;-5.646;2023-04-19T04:00:50;98146.97;;;12.72
69704;BMP280;56967;43.538;-5.646;2023-04-19T04:03:18;98123.97;;;12.78
69704;BMP280;56967;43.538;-5.646;2023-04-19T04:05:43;98142.25;;;12.88
69704;BMP280;56967;43.538;-5.646;2023-04-19T04:08:09;98193.72;;;12.99
69704;BMP280;56967;43.538;-5.646;2023-04-19T04:10:34;98254.22;;;13.04
69704;BMP280;56967;43.538;-5.646;2023-04-19T04:13:00;98298.97;;;13.09
69704;BMP280;56967;43.538;-5.646;2023-04-19T04:15:25;98327.91;;;12.96
69704;BMP280;56967;43.538;-5.646;2023-04-19T04:17:51;98308.91;;;12.99
69704;BMP280;56967;43.538;-5.646;2023-04-19T04:20:16;98330.09;;;12.94
69704;BMP280;56967;43.538;-5.646;2023-04-19T04:22:42;98329.47;;;13.15
69704;BMP280;56967;43.538;-5.646;2023-04-19T04:25:10;98443.97;;;13.28
69704;BMP280;56967;43.538;-5.646;2023-04-19T04:27:37;98547.53;;;13.38
69704;BMP280;56967;43.538;-5.646;2023-04-19T04:30:05;98633.22;;;13.41
69704;BMP280;56967;43.538;-5.646;2023-04-19T04:32:31;98673.69;;;13.55
69704;BMP280;56967;43.538;-5.646;2023-04-19T04:35:03;98758.34;;;13.35
69704;BMP280;56967;43.538;-5.646;2023-04-19T04:37:33;98763.13;;;13.28
69704;BMP280;56967;43.538;-5.646;2023-04-19T04:39:59;98780.94;;;13.41
69704;BMP280;56967;43.538;-5.646;2023-04-19T04:42:25;98806.72;;;13.54
69704;BMP280;56967;43.538;-5.646;2023-04-19T04:44:52;98901.91;;;13.63
69704;BMP280;56967;43.538;-5.646;2023-04-19T04:47:19;98959.28;;;13.47
69704;BMP280;56967;43.538;-5.646;2023-04-19T04:49:45;98973.69;;;13.60
69704;BMP280;56967;43.538;-5.646;2023-04-19T04:52:11;99047.44;;;13.46
69704;BMP280;56967;43.538;-5.646;2023-04-19T04:54:36;99000.84;;;13.26
69704;BMP280;56967;43.538;-5.646;2023-04-19T04:57:02;98984.34;;;13.50
69704;BMP280;56967;43.538;-5.646;2023-04-19T04:59:28;99087.22;;;13.55
69704;BMP280;56967;43.538;-5.646;2023-04-19T05:01:53;99120.25;;;13.52
69704;BMP280;56967;43.538;-5.646;2023-04-19T05:04:19;99155.38;;;13.37
69704;BMP280;56967;43.538;-5.646;2023-04-19T05:06:45;99129.28;;;13.36
69704;BMP280;56967;43.538;-5.646;2023-04-19T05:09:11;99158.03;;;13.32
69704;BMP280;56967;43.538;-5.646;2023-04-19T05:11:36;99136.44;;;13.15
69704;BMP280;56967;43.538;-5.646;2023-04-19T05:14:02;99102.69;;;13.17
69704;BMP280;56967;43.538;-5.646;2023-04-19T05:16:28;99080.81;;;13.17
69704;BMP280;56967;43.538;-5.646;2023-04-19T05:18:53;99072.88;;;13.22
69704;BMP280;56967;43.538;-5.646;2023-04-19T05:21:20;99104.81;;;13.20
69704;BMP280;56967;43.538;-5.646;2023-04-19T05:23:45;99136.72;;;13.09
69704;BMP280;56967;43.538;-5.646;2023-04-19T05:26:11;99074.78;;;13.01
69704;BMP280;56967;43.538;-5.646;2023-04-19T05:28:40;99086.34;;;13.15
69704;BMP280;56967;43.538;-5.646;2023-04-19T05:31:07;99095.59;;;13.13
69704;BMP280;56967;43.538;-5.646;2023-04-19T05:33:33;99129.06;;;13.17
69704;BMP280;56967;43.538;-5.646;2023-04-19T05:35:59;99119.63;;;13.01
69704;BMP280;56967;43.538;-5.646;2023-04-19T05:38:24;99128.28;;;13.12
69704;BMP280;56967;43.538;-5.646;2023-04-19T05:40:50;99141.72;;;13.20
69704;BMP280;56967;43.538;-5.646;2023-04-19T05:43:15;99183.13;;;13.25
69704;BMP280;56967;43.538;-5.646;2023-04-19T05:45:41;99192.63;;;13.31
69704;BMP280;56967;43.538;-5.646;2023-04-19T05:48:07;99212.41;;;13.33
69704;BMP280;56967;43.538;-5.646;2023-04-19T05:50:34;99246.69;;;13.38
69704;BMP280;56967;43.538;-5.646;2023-04-19T05:53:00;99247.97;;;13.41
69704;BMP280;56967;43.538;-5.646;2023-04-19T05:55:27;99272.00;;;13.44
69704;BMP280;56967;43.538;-5.646;2023-04-19T05:57:53;99363.56;;;13.54
69704;BMP280;56967;43.538;-5.646;2023-04-19T06:00:18;99407.09;;;13.82
69704;BMP280;56967;43.538;-5.646;2023-04-19T06:02:44;99515.41;;;14.07
69704;BMP280;56967;43.538;-5.646;2023-04-19T06:05:10;99597.81;;;14.19
69704;BMP280;56967;43.538;-5.646;2023-04-19T06:07:35;99788.47;;;14.73
69704;BMP280;56967;43.538;-5.646;2023-04-19T06:10:01;99912.09;;;15.43
69704;BMP280;56967;43.538;-5.646;2023-04-19T06:12:26;100115.56;;;15.71
69704;BMP280;56967;43.538;-5.646;2023-04-19T06:14:52;100159.50;;;15.52
69704;BMP280;56967;43.538;-5.646;2023-04-19T06:17:18;100091.78;;;15.14
69704;BMP280;56967;43.538;-5.646;2023-04-19T06:19:49;100347.63;;;18.00
69704;BMP280;56967;43.538;-5.646;2023-04-19T06:22:14;100637.72;;;19.72
69704;BMP280;56967;43.538;-5.646;2023-04-19T06:24:40;100711.75;;;19.52
69704;BMP280;56967;43.538;-5.646;2023-04-19T06:27:05;100760.16;;;20.46
69704;BMP280;56967;43.538;-5.646;2023-04-19T06:29:31;100846.91;;;22.01
69704;BMP280;56967;43.538;-5.646;2023-04-19T06:31:56;100911.53;;;22.82
69704;BMP280;56967;43.538;-5.646;2023-04-19T06:34:22;100956.41;;;24.04
69704;BMP280;56967;43.538;-5.646;2023-04-19T06:36:47;100966.75;;;24.10
69704;BMP280;56967;43.538;-5.646;2023-04-19T06:39:13;100989.16;;;24.42
69704;BMP280;56967;43.538;-5.646;2023-04-19T06:41:39;100993.88;;;25.98
69704;BMP280;56967;43.538;-5.646;2023-04-19T06:44:05;101012.72;;;26.83
69704;BMP280;56967;43.538;-5.646;2023-04-19T06:46:30;101027.50;;;28.11
69704;BMP280;56967;43.538;-5.646;2023-04-19T06:48:56;101042.88;;;28.96
69704;BMP280;56967;43.538;-5.646;2023-04-19T06:51:21;101043.53;;;29.50
69704;BMP280;56967;43.538;-5.646;2023-04-19T06:53:48;101049.78;;;29.78
69704;BMP280;56967;43.538;-5.646;2023-04-19T06:56:14;101054.53;;;30.64
69704;BMP280;56967;43.538;-5.646;2023-04-19T06:58:40;101059.63;;;30.66
69704;BMP280;56967;43.538;-5.646;2023-04-19T07:01:05;101055.09;;;30.42
69704;BMP280;56967;43.538;-5.646;2023-04-19T07:03:31;101042.25;;;28.34
69704;BMP280;56967;43.538;-5.646;2023-04-19T07:05:57;101072.94;;;28.59
69704;BMP280;56967;43.538;-5.646;2023-04-19T07:08:24;101083.00;;;31.83
69704;BMP280;56967;43.538;-5.646;2023-04-19T07:10:50;101084.75;;;31.56
69704;BMP280;56967;43.538;-5.646;2023-04-19T07:13:15;101051.44;;;31.28
69704;BMP280;56967;43.538;-5.646;2023-04-19T07:15:41;101078.84;;;29.17
69704;BMP280;56967;43.538;-5.646;2023-04-19T07:18:06;101086.56;;;31.52
69704;BMP280;56967;43.538;-5.646;2023-04-19T07:20:32;101081.47;;;33.10
69704;BMP280;56967;43.538;-5.646;2023-04-19T07:22:58;101081.91;;;33.68
69704;BMP280;56967;43.538;-5.646;2023-04-19T07:25:24;101079.22;;;34.92
69704;BMP280;56967;43.538;-5.646;2023-04-19T07:27:51;101088.38;;;36.03
69704;BMP280;56967;43.538;-5.646;2023-04-19T07:30:18;101082.56;;;35.18
69704;BMP280;56967;43.538;-5.646;2023-04-19T07:32:43;101084.81;;;37.11
69704;BMP280;56967;43.538;-5.646;2023-04-19T07:35:10;101092.09;;;37.60
69704;BMP280;56967;43.538;-5.646;2023-04-19T07:37:35;101090.22;;;37.35
69704;BMP280;56967;43.538;-5.646;2023-04-19T07:40:01;101099.56;;;38.61
69704;BMP280;56967;43.538;-5.646;2023-04-19T07:42:28;101093.13;;;39.12
69704;BMP280;56967;43.538;-5.646;2023-04-19T07:44:54;101101.44;;;39.92
69704;BMP280;56967;43.538;-5.646;2023-04-19T07:47:20;101104.69;;;40.33
69704;BMP280;56967;43.538;-5.646;2023-04-19T07:49:45;101101.88;;;40.98
69704;BMP280;56967;43.538;-5.646;2023-04-19T07:52:11;101111.63;;;40.64
69704;BMP280;56967;43.538;-5.646;2023-04-19T07:54:36;101121.97;;;40.99
69704;BMP280;56967;43.538;-5.646;2023-04-19T07:57:03;101114.81;;;42.04
69704;BMP280;56967;43.538;-5.646;2023-04-19T07:59:29;101117.25;;;42.88
69704;BMP280;56967;43.538;-5.646;2023-04-19T08:01:57;101115.41;;;42.98
69704;BMP280;56967;43.538;-5.646;2023-04-19T08:04:23;101124.50;;;40.70
69704;BMP280;56967;43.538;-5.646;2023-04-19T08:06:49;101130.06;;;42.82
69704;BMP280;56967;43.538;-5.646;2023-04-19T08:09:15;101054.00;;;41.88
69704;BMP280;56967;43.538;-5.646;2023-04-19T08:11:40;101100.03;;;39.53
69704;BMP280;56967;43.538;-5.646;2023-04-19T08:14:07;101049.44;;;37.34
69704;BMP280;56967;43.538;-5.646;2023-04-19T08:16:32;101143.63;;;36.61
69704;BMP280;56967;43.538;-5.646;2023-04-19T08:18:58;101132.38;;;37.77
69704;BMP280;56967;43.538;-5.646;2023-04-19T08:21:24;101130.44;;;32.39
69704;BMP280;56967;43.538;-5.646;2023-04-19T08:23:51;101122.78;;;29.59
69704;BMP280;56967;43.538;-5.646;2023-04-19T08:26:16;101109.06;;;35.90
69704;BMP280;56967;43.538;-5.646;2023-04-19T08:28:42;101141.38;;;39.20
69704;BMP280;56967;43.538;-5.646;2023-04-19T08:31:07;101147.06;;;33.73
69704;BMP280;56967;43.538;-5.646;2023-04-19T08:33:33;101148.50;;;33.15
69704;BMP280;56967;43.538;-5.646;2023-04-19T08:35:58;101115.75;;;38.05
69704;BMP280;56967;43.538;-5.646;2023-04-19T08:38:24;101097.00;;;29.41
69704;BMP280;56967;43.538;-5.646;2023-04-19T08:40:53;101263.81;;;35.66
69704;BMP280;56967;43.538;-5.646;2023-04-19T08:43:19;101064.84;;;30.15
69704;BMP280;56967;43.538;-5.646;2023-04-19T08:45:49;101150.03;;;24.07
69704;BMP280;56967;43.538;-5.646;2023-04-19T08:48:15;101254.75;;;27.77
69704;BMP280;56967;43.538;-5.646;2023-04-19T08:50:42;101240.81;;;30.53
69704;BMP280;56967;43.538;-5.646;2023-04-19T08:53:09;101257.13;;;32.90
69704;BMP280;56967;43.538;-5.646;2023-04-19T08:55:39;101243.78;;;32.47
69704;BMP280;56967;43.538;-5.646;2023-04-19T08:58:05;101248.88;;;30.13
69704;BMP280;56967;43.538;-5.646;2023-04-19T09:00:32;101255.13;;;32.49
69704;BMP280;56967;43.538;-5.646;2023-04-19T09:02:58;101262.09;;;33.30
69704;BMP280;56967;43.538;-5.646;2023-04-19T09:05:24;101256.66;;;32.69
69704;BMP280;56967;43.538;-5.646;2023-04-19T09:07:50;101239.56;;;31.80
69704;BMP280;56967;43.538;-5.646;2023-04-19T09:10:19;101240.09;;;32.39
69704;BMP280;56967;43.538;-5.646;2023-04-19T09:13:05;101244.41;;;28.75
69704;BMP280;56967;43.538;-5.646;2023-04-19T09:18:09;101237.66;;;28.02
69704;BMP280;56967;43.538;-5.646;2023-04-19T09:20:42;101230.03;;;26.72
69704;BMP280;56967;43.538;-5.646;2023-04-19T09:23:13;101217.81;;;31.06
69704;BMP280;56967;43.538;-5.646;2023-04-19T09:25:51;101227.34;;;30.32
69704;BMP280;56967;43.538;-5.646;2023-04-19T09:28:18;101172.28;;;31.15
69704;BMP280;56967;43.538;-5.646;2023-04-19T09:30:44;101122.06;;;31.09
69704;BMP280;56967;43.538;-5.646;2023-04-19T09:33:11;101104.13;;;29.70
69704;BMP280;56967;43.538;-5.646;2023-04-19T09:35:45;101115.16;;;23.62
69704;BMP280;56967;43.538;-5.646;2023-04-19T09:38:14;101066.50;;;24.31
69704;BMP280;56967;43.538;-5.646;2023-04-19T09:40:41;101077.88;;;24.28
69704;BMP280;56967;43.538;-5.646;2023-04-19T09:43:07;101068.09;;;23.64
69704;BMP280;56967;43.538;-5.646;2023-04-19T09:45:43;101048.34;;;22.58
69704;BMP280;56967;43.538;-5.646;2023-04-19T09:48:10;101044.47;;;21.80
69704;BMP280;56967;43.538;-5.646;2023-04-19T09:50:44;100998.66;;;20.42
69704;BMP280;56967;43.538;-5.646;2023-04-19T09:53:16;100920.78;;;19.56
69704;BMP280;56967;43.538;-5.646;2023-04-19T09:55:43;100895.47;;;20.17
69704;BMP280;56967;43.538;-5.646;2023-04-19T09:58:10;100896.78;;;19.56
69704;BMP280;56967;43.538;-5.646;2023-04-19T10:00:36;100889.13;;;20.03
69704;BMP280;56967;43.538;-5.646;2023-04-19T10:03:04;100878.34;;;19.69
69704;BMP280;56967;43.538;-5.646;2023-04-19T10:05:30;100836.09;;;18.92
69704;BMP280;56967;43.538;-5.646;2023-04-19T10:07:57;100811.22;;;19.47
69704;BMP280;56967;43.538;-5.646;2023-04-19T10:10:23;100800.66;;;19.02
69704;BMP280;56967;43.538;-5.646;2023-04-19T10:12:52;100770.31;;;18.88
69704;BMP280;56967;43.538;-5.646;2023-04-19T10:15:19;100697.13;;;18.20
69704;BMP280;56967;43.538;-5.646;2023-04-19T10:17:47;100624.19;;;18.31
69704;BMP280;56967;43.538;-5.646;2023-04-19T10:20:19;100632.47;;;18.09
69704;BMP280;56967;43.538;-5.646;2023-04-19T10:22:48;100673.94;;;18.65
69704;BMP280;56967;43.538;-5.646;2023-04-19T10:25:14;100595.75;;;18.16
69704;BMP280;56967;43.538;-5.646;2023-04-19T10:27:42;100597.28;;;18.52
69704;BMP280;56967;43.538;-5.646;2023-04-19T10:30:21;100585.13;;;17.91
69704;BMP280;56967;43.538;-5.646;2023-04-19T10:32:52;100564.59;;;18.17
69704;BMP280;56967;43.538;-5.646;2023-04-19T10:35:22;100522.59;;;18.03
69704;BMP280;56967;43.538;-5.646;2023-04-19T10:40:55;100578.53;;;18.83
69704;BMP280;56967;43.538;-5.646;2023-04-19T10:43:22;100534.84;;;17.89
69704;BMP280;56967;43.538;-5.646;2023-04-19T10:45:48;100528.47;;;18.11
69704;BMP280;56967;43.538;-5.646;2023-04-19T11:01:46;100393.50;;;17.42
69704;BMP280;56967;43.538;-5.646;2023-04-19T11:09:37;100422.00;;;18.21
69704;BMP280;56967;43.538;-5.646;2023-04-19T11:12:04;100431.94;;;17.85
69704;BMP280;56967;43.538;-5.646;2023-04-19T11:17:23;100515.56;;;18.48
69704;BMP280;56967;43.538;-5.646;2023-04-19T11:19:59;100452.00;;;18.41
69704;BMP280;56967;43.538;-5.646;2023-04-19T11:22:36;100498.06;;;18.32
69704;BMP280;56967;43.538;-5.646;2023-04-19T11:25:09;100429.50;;;18.03
69704;BMP280;56967;43.538;-5.646;2023-04-19T11:27:39;100447.84;;;18.15
69704;BMP280;56967;43.538;-5.646;2023-04-19T11:30:31;100387.09;;;17.38
69704;BMP280;56967;43.538;-5.646;2023-04-19T11:32:57;100322.53;;;17.43
69704;BMP280;56967;43.538;-5.646;2023-04-19T11:35:24;100234.53;;;17.59
69704;BMP280;56967;43.538;-5.646;2023-04-19T11:37:50;100304.84;;;18.36
69704;BMP280;56967;43.538;-5.646;2023-04-19T11:40:17;100274.19;;;17.41
69704;BMP280;56967;43.538;-5.646;2023-04-19T11:42:43;100313.53;;;18.02
69704;BMP280;56967;43.538;-5.646;2023-04-19T11:45:10;100317.66;;;17.75
69704;BMP280;56967;43.538;-5.646;2023-04-19T11:47:56;100338.22;;;18.18
69704;BMP280;56967;43.538;-5.646;2023-04-19T11:50:41;100299.97;;;18.04
69704;BMP280;56967;43.538;-5.646;2023-04-19T11:53:19;100335.88;;;18.07
69704;BMP280;56967;43.538;-5.646;2023-04-19T11:55:49;100305.31;;;18.04
69704;BMP280;56967;43.538;-5.646;2023-04-19T12:00:53;100280.59;;;17.98
69704;BMP280;56967;43.538;-5.646;2023-04-19T12:03:23;100250.25;;;17.46
69704;BMP280;56967;43.538;-5.646;2023-04-19T12:05:57;100173.88;;;17.12
69704;BMP280;56967;43.538;-5.646;2023-04-19T12:08:34;100159.88;;;17.56
69704;BMP280;56967;43.538;-5.646;2023-04-19T12:11:00;100049.38;;;17.01
69704;BMP280;56967;43.538;-5.646;2023-04-19T12:13:28;100066.53;;;17.23
69704;BMP280;56967;43.538;-5.646;2023-04-19T12:15:55;100073.81;;;17.85
69704;BMP280;56967;43.538;-5.646;2023-04-19T12:18:21;100167.75;;;17.71
69704;BMP280;56967;43.538;-5.646;2023-04-19T12:20:49;100098.72;;;17.07
69704;BMP280;56967;43.538;-5.646;2023-04-19T12:23:18;100099.56;;;17.51
69704;BMP280;56967;43.538;-5.646;2023-04-19T12:25:46;100094.03;;;17.43
69704;BMP280;56967;43.538;-5.646;2023-04-19T12:28:13;100068.47;;;17.52
69704;BMP280;56967;43.538;-5.646;2023-04-19T12:30:39;100153.97;;;17.64
69704;BMP280;56967;43.538;-5.646;2023-04-19T12:33:06;100133.75;;;17.68
69704;BMP280;56967;43.538;-5.646;2023-04-19T12:35:32;100232.97;;;17.48
69704;BMP280;56967;43.538;-5.646;2023-04-19T12:37:58;100145.19;;;17.68
69704;BMP280;56967;43.538;-5.646;2023-04-19T12:40:25;100235.94;;;17.95
69704;BMP280;56967;43.538;-5.646;2023-04-19T12:42:51;100280.66;;;17.83
69704;BMP280;56967;43.538;-5.646;2023-04-19T12:45:18;100257.09;;;17.62
69704;BMP280;56967;43.538;-5.646;2023-04-19T12:47:44;100223.72;;;17.89
69704;BMP280;56967;43.538;-5.646;2023-04-19T12:50:12;100228.06;;;17.75
69704;BMP280;56967;43.538;-5.646;2023-04-19T12:52:39;100215.44;;;17.47
69704;BMP280;56967;43.538;-5.646;2023-04-19T12:55:05;100165.47;;;17.54
69704;BMP280;56967;43.538;-5.646;2023-04-19T12:57:31;100189.63;;;17.58
69704;BMP280;56967;43.538;-5.646;2023-04-19T12:59:57;100160.31;;;17.19
69704;BMP280;56967;43.538;-5.646;2023-04-19T13:02:22;100148.09;;;17.13
69704;BMP280;56967;43.538;-5.646;2023-04-19T13:04:48;100117.94;;;17.43
69704;BMP280;56967;43.538;-5.646;2023-04-19T13:07:13;100137.72;;;17.65
69704;BMP280;56967;43.538;-5.646;2023-04-19T13:09:39;100142.19;;;17.75
69704;BMP280;56967;43.538;-5.646;2023-04-19T13:12:05;100200.63;;;17.85
69704;BMP280;56967;43.538;-5.646;2023-04-19T13:14:31;100204.09;;;17.85
69704;BMP280;56967;43.538;-5.646;2023-04-19T13:16:57;100194.97;;;17.48
69704;BMP280;56967;43.538;-5.646;2023-04-19T13:19:22;100127.75;;;17.47
69704;BMP280;56967;43.538;-5.646;2023-04-19T13:21:48;100106.41;;;17.18
69704;BMP280;56967;43.538;-5.646;2023-04-19T13:24:13;100075.38;;;17.09
69704;BMP280;56967;43.538;-5.646;2023-04-19T13:26:39;100051.22;;;17.05
69704;BMP280;56967;43.538;-5.646;2023-04-19T13:29:05;99976.22;;;16.75
69704;BMP280;56967;43.538;-5.646;2023-04-19T13:31:34;99920.81;;;17.07
69704;BMP280;56967;43.538;-5.646;2023-04-19T13:34:00;99962.81;;;17.05
69704;BMP280;56967;43.538;-5.646;2023-04-19T13:36:26;99941.97;;;17.22
69704;BMP280;56967;43.538;-5.646;2023-04-19T13:38:54;99962.63;;;17.25
69704;BMP280;56967;43.538;-5.646;2023-04-19T13:41:20;99967.34;;;16.45
69704;BMP280;56967;43.538;-5.646;2023-04-19T13:43:45;99903.94;;;17.26
69704;BMP280;56967;43.538;-5.646;2023-04-19T13:46:11;99978.50;;;17.35
69704;BMP280;56967;43.538;-5.646;2023-04-19T13:48:37;99973.88;;;17.51
69704;BMP280;56967;43.538;-5.646;2023-04-19T13:51:02;100050.13;;;17.84
69704;BMP280;56967;43.538;-5.646;2023-04-19T13:53:28;99983.91;;;17.20
69704;BMP280;56967;43.538;-5.646;2023-04-19T13:55:54;99971.06;;;17.42
69704;BMP280;56967;43.538;-5.646;2023-04-19T13:58:20;99965.78;;;17.37
69704;BMP280;56967;43.538;-5.646;2023-04-19T14:00:46;99912.63;;;17.03
69704;BMP280;56967;43.538;-5.646;2023-04-19T14:03:15;99842.03;;;17.31
69704;BMP280;56967;43.538;-5.646;2023-04-19T14:05:40;99986.94;;;17.08
69704;BMP280;56967;43.538;-5.646;2023-04-19T14:08:06;99925.97;;;17.32
69704;BMP280;56967;43.538;-5.646;2023-04-19T14:10:31;99947.34;;;17.12
69704;BMP280;56967;43.538;-5.646;2023-04-19T14:12:58;99885.09;;;16.94
69704;BMP280;56967;43.538;-5.646;2023-04-19T14:15:23;99843.47;;;17.18
69704;BMP280;56967;43.538;-5.646;2023-04-19T14:17:49;99857.97;;;16.97